D/T METAR WX W/DIR W/SPE G/SPE TEMP DEWP
16/01/19 03:20 EGNX 160320Z 22016KT 9999 BKN010 08/06 Q1005 SW (220°) 18.4mph 8°C 6°C
16/01/19 02:50 EGNX 160250Z 21017KT 9999 BKN010 08/06 Q1006 SSW (210°) 19.6mph 8°C 6°C
16/01/19 02:20 EGNX 160220Z 21017KT 9999 BKN011 08/06 Q1006 SSW (210°) 19.6mph 8°C 6°C
16/01/19 01:50 EGNX 160150Z 21017KT 9999 BKN011 08/06 Q1007 SSW (210°) 19.6mph 8°C 6°C
16/01/19 01:20 EGNX 160120Z 21015KT 9999 BKN009 08/06 Q1007 SSW (210°) 17.3mph 8°C 6°C
16/01/19 00:50 EGNX 160050Z 21015KT 9999 BKN009 08/06 Q1008 SSW (210°) 17.3mph 8°C 6°C
15/01/19 23:50 EGNX 152350Z 21012KT 9999 BKN013 08/06 Q1009 SSW (210°) 13.8mph 8°C 6°C
15/01/19 23:20 EGNX 152320Z 21014KT 9999 SCT015 BKN035 08/06 Q1009 SSW (210°) 16.1mph 8°C 6°C
15/01/19 22:50 EGNX 152250Z 21015KT 9999 FEW017 SCT026 08/06 Q1010 SSW (210°) 17.3mph 8°C 6°C
15/01/19 22:20 EGNX 152220Z 21013KT 9999 FEW016 SCT021 08/05 Q1010 SSW (210°) 15.0mph 8°C 5°C
15/01/19 21:20 EGNX 152120Z 22012KT 9999 SCT023 08/05 Q1011 SW (220°) 13.8mph 8°C 5°C
15/01/19 20:20 EGNX 152020Z 23014KT 9999 BKN025 08/06 Q1012 SW (230°) 16.1mph 8°C 6°C
15/01/19 19:20 EGNX 151920Z 23011KT 9999 BKN022 08/06 Q1012 SW (230°) 12.7mph 8°C 6°C
15/01/19 18:50 EGNX 151850Z 24012KT 9999 BKN025 08/06 Q1012 WSW (240°) 13.8mph 8°C 6°C
15/01/19 18:20 EGNX 151820Z 24012KT 9999 SCT022 BKN031 08/06 Q1013 WSW (240°) 13.8mph 8°C 6°C
15/01/19 17:50 EGNX 151750Z 23012KT 9999 SCT020 BKN033 08/06 Q1013 SW (230°) 13.8mph 8°C 6°C
15/01/19 17:20 EGNX 151720Z 23013KT 9999 SCT018 BKN030 08/06 Q1013 SW (230°) 15.0mph 8°C 6°C
15/01/19 16:50 EGNX 151650Z 23012KT 9999 SCT019 BKN026 08/06 Q1013 SW (230°) 13.8mph 8°C 6°C
15/01/19 16:20 EGNX 151620Z 23013KT 9999 SCT022 BKN031 08/06 Q1013 SW (230°) 15.0mph 8°C 6°C
15/01/19 15:50 EGNX 151550Z 23013KT 9999 BKN022 08/05 Q1014 SW (230°) 15.0mph 8°C 5°C
15/01/19 15:20 EGNX 151520Z 23012KT 9999 SCT026 BKN040 09/05 Q1014 SW (230°) 13.8mph 9°C 5°C
15/01/19 14:50 EGNX 151450Z 23012KT 9999 BKN035 09/05 Q1014 SW (230°) 13.8mph 9°C 5°C
15/01/19 14:20 EGNX 151420Z 24013KT 9999 FEW020 BKN038 09/05 Q1014 WSW (240°) 15.0mph 9°C 5°C
15/01/19 13:50 EGNX 151350Z 24019KT 9999 FEW020 SCT039 09/05 Q1015 WSW (240°) 21.9mph 9°C 5°C
15/01/19 13:20 EGNX 151320Z 25015KT 9999 FEW048 10/06 Q1015 WSW (250°) 17.3mph 10°C 6°C
15/01/19 12:50 EGNX 151250Z 25016KT 9999 FEW048 09/06 Q1015 WSW (250°) 18.4mph 9°C 6°C
15/01/19 11:50 EGNX 151150Z 24013KT 9999 FEW048 08/05 Q1016 WSW (240°) 15.0mph 8°C 5°C
15/01/19 11:20 EGNX 151120Z 23013KT 9999 BKN046 08/06 Q1017 SW (230°) 15.0mph 8°C 6°C
15/01/19 10:50 EGNX 151050Z 23013KT 9999 SCT046 08/06 Q1017 SW (230°) 15.0mph 8°C 6°C
15/01/19 09:50 EGNX 150950Z 24017KT 9999 SCT044 07/06 Q1017 WSW (240°) 19.6mph 7°C 6°C
15/01/19 09:20 EGNX 150920Z 23015KT 9999 SCT043 06/05 Q1017 SW (230°) 17.3mph 6°C 5°C
15/01/19 08:50 EGNX 150850Z 23015KT 9999 SCT042 07/05 Q1017 SW (230°) 17.3mph 7°C 5°C
15/01/19 08:20 EGNX 150820Z 23014KT 9999 BKN043 07/05 Q1017 SW (230°) 16.1mph 7°C 5°C
15/01/19 07:50 EGNX 150750Z 24013KT 9999 BKN042 07/05 Q1017 WSW (240°) 15.0mph 7°C 5°C
15/01/19 07:20 EGNX 150720Z 23014KT 9999 BKN041 07/05 Q1017 SW (230°) 16.1mph 7°C 5°C
15/01/19 06:50 EGNX 150650Z 24014KT 9999 BKN040 07/05 Q1017 WSW (240°) 16.1mph 7°C 5°C
15/01/19 06:20 EGNX 150620Z 23014KT 9999 BKN037 06/05 Q1017 SW (230°) 16.1mph 6°C 5°C
15/01/19 05:50 EGNX 150550Z 24016KT 9999 BKN037 06/05 Q1017 WSW (240°) 18.4mph 6°C 5°C
15/01/19 05:20 EGNX 150520Z 24016KT 9999 BKN033 06/05 Q1017 WSW (240°) 18.4mph 6°C 5°C
15/01/19 04:50 EGNX 150450Z 24016KT 9999 BKN034 06/05 Q1018 WSW (240°) 18.4mph 6°C 5°C
15/01/19 04:20 EGNX 150420Z 24019KT 9999 BKN034 06/04 Q1018 WSW (240°) 21.9mph 6°C 4°C
15/01/19 03:20 EGNX 150320Z 23009KT 9999 BKN032 05/03 Q1019 SW (230°) 10.4mph 5°C 3°C
15/01/19 02:20 EGNX 150220Z 23011KT 9999 FEW034 04/03 Q1019 SW (230°) 12.7mph 4°C 3°C
15/01/19 01:50 EGNX 150150Z 23012KT 9999 FEW032 04/02 Q1019 SW (230°) 13.8mph 4°C 2°C
15/01/19 01:20 EGNX 150120Z 23011KT 9999 BKN036 04/02 Q1020 SW (230°) 12.7mph 4°C 2°C
15/01/19 00:50 EGNX 150050Z 21008KT 9999 FEW030 BKN040 04/02 Q1020 SSW (210°) 9.2mph 4°C 2°C
14/01/19 23:50 EGNX 142350Z 24009KT 9999 SCT027 04/02 Q1021 WSW (240°) 10.4mph 4°C 2°C
14/01/19 22:50 EGNX 142250Z 23007KT 9999 SCT031 04/02 Q1021 SW (230°) 8.1mph 4°C 2°C
14/01/19 22:20 EGNX 142220Z 25010KT 9999 SCT032 04/03 Q1021 WSW (250°) 11.5mph 4°C 3°C
14/01/19 21:50 EGNX 142150Z 24009KT CAVOK 04/03 Q1021 WSW (240°) 10.4mph 4°C 3°C
14/01/19 21:20 EGNX 142120Z 23007KT CAVOK 05/03 Q1021 SW (230°) 8.1mph 5°C 3°C
14/01/19 20:50 EGNX 142050Z 24008KT CAVOK 05/03 Q1021 WSW (240°) 9.2mph 5°C 3°C
14/01/19 19:50 EGNX 141950Z 25007KT 9999 SCT042 05/03 Q1021 WSW (250°) 8.1mph 5°C 3°C
14/01/19 19:20 EGNX 141920Z 26010KT 9999 BKN039 06/04 Q1021 W (260°) 11.5mph 6°C 4°C
14/01/19 18:50 EGNX 141850Z 26009KT 9999 FEW023 SCT035 06/04 Q1022 W (260°) 10.4mph 6°C 4°C
14/01/19 18:20 EGNX 141820Z 26009KT 9999 FEW022 BKN043 06/04 Q1022 W (260°) 10.4mph 6°C 4°C
14/01/19 17:50 EGNX 141750Z 25008KT 9999 BKN042 06/05 Q1021 WSW (250°) 9.2mph 6°C 5°C
14/01/19 17:20 EGNX 141720Z 27008KT 9999 BKN048 06/04 Q1021 W (270°) 9.2mph 6°C 4°C
14/01/19 16:50 EGNX 141650Z 27009KT 9999 BKN047 06/04 Q1021 W (270°) 10.4mph 6°C 4°C
14/01/19 16:20 EGNX 141620Z 26010KT 9999 SCT022 BKN049 07/04 Q1021 W (260°) 11.5mph 7°C 4°C
14/01/19 15:50 EGNX 141550Z 27008KT 9999 SCT024 BKN048 07/04 Q1021 W (270°) 9.2mph 7°C 4°C
14/01/19 15:20 EGNX 141520Z 27007KT 9999 SCT023 BKN043 07/04 Q1021 W (270°) 8.1mph 7°C 4°C
14/01/19 14:20 EGNX 141420Z 28010KT 9999 FEW023 07/04 Q1021 W (280°) 11.5mph 7°C 4°C
14/01/19 13:20 EGNX 141320Z 31010KT 9999 BKN023 08/04 Q1020 NW (310°) 11.5mph 8°C 4°C
14/01/19 12:50 EGNX 141250Z 30012KT 9999 FEW026 SCT044 08/03 Q1021 WNW (300°) 13.8mph 8°C 3°C
14/01/19 12:20 EGNX 141220Z 31013KT 280V340 9999 SCT023 08/04 Q1020 NW (310°) 15.0mph 8°C 4°C
14/01/19 11:50 EGNX 141150Z 31011KT 9999 SCT021 08/05 Q1020 NW (310°) 12.7mph 8°C 5°C
14/01/19 10:50 EGNX 141050Z 29009KT 9999 SCT019 BKN032 07/04 Q1020 WNW (290°) 10.4mph 7°C 4°C
14/01/19 09:50 EGNX 140950Z 30009KT 9999 SCT021 BKN037 07/04 Q1020 WNW (300°) 10.4mph 7°C 4°C
14/01/19 09:20 EGNX 140920Z 28010KT 9999 SCT019 06/04 Q1020 W (280°) 11.5mph 6°C 4°C
14/01/19 08:20 EGNX 140820Z 30009KT 9999 FEW030 06/03 Q1019 WNW (300°) 10.4mph 6°C 3°C
14/01/19 07:50 EGNX 140750Z 31013KT CAVOK 06/04 Q1018 NW (310°) 15.0mph 6°C 4°C
14/01/19 07:20 EGNX 140720Z 31015KT CAVOK 07/04 Q1017 NW (310°) 17.3mph 7°C 4°C
14/01/19 06:50 EGNX 140650Z 31017KT CAVOK 06/04 Q1017 NW (310°) 19.6mph 6°C 4°C
14/01/19 06:20 EGNX 140620Z 31013KT CAVOK 07/04 Q1017 NW (310°) 15.0mph 7°C 4°C
14/01/19 05:50 EGNX 140550Z 31014KT CAVOK 06/04 Q1017 NW (310°) 16.1mph 6°C 4°C
14/01/19 05:20 EGNX 140520Z 31015KT 9999 SCT022 06/03 Q1016 NW (310°) 17.3mph 6°C 3°C
14/01/19 04:50 EGNX 140450Z 30017KT 9999 SCT022 07/04 Q1016 WNW (300°) 19.6mph 7°C 4°C
14/01/19 03:50 EGNX 140350Z 29012KT 9999 SCT022 06/04 Q1016 WNW (290°) 13.8mph 6°C 4°C
14/01/19 03:20 EGNX 140320Z 28015KT 9999 SCT022 06/04 Q1016 W (280°) 17.3mph 6°C 4°C
14/01/19 02:50 EGNX 140250Z 30017KT 9999 FEW026 06/04 Q1015 WNW (300°) 19.6mph 6°C 4°C
14/01/19 02:20 EGNX 140220Z 30015KT 9999 FEW029 07/04 Q1015 WNW (300°) 17.3mph 7°C 4°C
14/01/19 01:50 EGNX 140150Z 30019KT 9999 FEW026 06/04 Q1014 WNW (300°) 21.9mph 6°C 4°C
14/01/19 01:20 EGNX 140120Z 29016KT 9999 SCT026 06/04 Q1014 WNW (290°) 18.4mph 6°C 4°C
14/01/19 00:50 EGNX 140050Z 30015G25KT 260V320 9999 FEW022 07/04 Q1014 WNW (300°) 17.3mph 28.8mph 7°C 4°C
14/01/19 00:20 EGNX 140020Z 30017KT 9999 FEW022 06/04 Q1013 WNW (300°) 19.6mph 6°C 4°C
13/01/19 23:50 EGNX 132350Z 30015G25KT 9999 FEW022 07/04 Q1014 WNW (300°) 17.3mph 28.8mph 7°C 4°C
13/01/19 23:20 EGNX 132320Z 29015G25KT 9999 FEW022 06/03 Q1013 WNW (290°) 17.3mph 28.8mph 6°C 3°C
13/01/19 22:50 EGNX 132250Z 29016KT 9999 FEW014 06/04 Q1013 WNW (290°) 18.4mph 6°C 4°C
13/01/19 21:50 EGNX 132150Z 30014KT 9999 BKN026 07/04 Q1013 WNW (300°) 16.1mph 7°C 4°C
13/01/19 21:20 EGNX 132120Z 31019KT 280V340 9999 SCT026 07/03 Q1012 NW (310°) 21.9mph 7°C 3°C
13/01/19 20:20 EGNX 132020Z 30015KT 9999 BKN028 08/04 Q1012 WNW (300°) 17.3mph 8°C 4°C
13/01/19 19:50 EGNX 131950Z 30017KT 9999 SCT027 08/04 Q1012 WNW (300°) 19.6mph 8°C 4°C
13/01/19 19:20 EGNX 131920Z 30019KT 9999 BKN025 08/04 Q1011 WNW (300°) 21.9mph 8°C 4°C
13/01/19 18:20 EGNX 131820Z 31015KT 9999 SCT026 08/04 Q1011 NW (310°) 17.3mph 8°C 4°C
13/01/19 17:50 EGNX 131750Z 31018G30KT 9999 SCT021 08/04 Q1010 NW (310°) 20.7mph 34.5mph 8°C 4°C
13/01/19 17:20 EGNX 131720Z 31019KT 9999 BKN021 09/06 Q1010 NW (310°) 21.9mph 9°C 6°C
13/01/19 16:50 EGNX 131650Z 30020KT 9999 BKN024 09/05 Q1009 WNW (300°) 23.0mph 9°C 5°C
13/01/19 15:50 EGNX 131550Z 29017G31KT 9999 SCT028 10/06 Q1008 WNW (290°) 19.6mph 35.7mph 10°C 6°C
13/01/19 15:20 EGNX 131520Z 29019G30KT 9999 BKN023 10/06 Q1008 WNW (290°) 21.9mph 34.5mph 10°C 6°C
13/01/19 14:50 EGNX 131450Z 28020KT 9999 BKN023 10/07 Q1009 W (280°) 23.0mph 10°C 7°C
13/01/19 14:20 EGNX 131420Z 28023G33KT 9999 BKN024 10/07 Q1009 W (280°) 26.5mph 38.0mph 10°C 7°C
13/01/19 13:50 EGNX 131350Z 29021G37KT 9999 BKN023 10/07 Q1009 WNW (290°) 24.2mph 42.6mph 10°C 7°C
13/01/19 13:20 EGNX 131320Z 29023G33KT 9999 FEW018 SCT022 10/09 Q1009 WNW (290°) 26.5mph 38.0mph 10°C 9°C
13/01/19 12:50 EGNX 131250Z 29020KT 9999 BKN013 10/09 Q1010 WNW (290°) 23.0mph 10°C 9°C
13/01/19 12:20 EGNX 131220Z 27017G27KT 9999 BKN014 10/09 Q1010 W (270°) 19.6mph 31.1mph 10°C 9°C
13/01/19 11:50 EGNX 131150Z 26017KT 9999 SCT006 BKN015 09/09 Q1010 W (260°) 19.6mph 9°C 9°C
13/01/19 11:20 EGNX 131120Z 25017KT 9000 -RA BKN005 08/08 Q1011 -RA WSW (250°) 19.6mph 8°C 8°C
13/01/19 10:50 EGNX 131050Z 24015KT 5000 -DZ BKN007 OVC018 08/08 Q1011 REDZ -DZ WSW (240°) 17.3mph 8°C 8°C
13/01/19 09:50 EGNX 130950Z 24018KT 4000 -RA BR SCT007 BKN016 08/07 Q1012 -RA BR WSW (240°) 20.7mph 8°C 7°C
13/01/19 08:50 EGNX 130850Z 25017KT 5000 -RA SCT008 BKN024 08/07 Q1012 -RA WSW (250°) 19.6mph 8°C 7°C
13/01/19 08:20 EGNX 130820Z 25020KT 9999 5000W SCT018 09/06 Q1012 WSW (250°) 23.0mph 9°C 6°C
13/01/19 07:50 EGNX 130750Z 25022G33KT 9999 FEW019 09/06 Q1012 WSW (250°) 25.3mph 38.0mph 9°C 6°C
13/01/19 07:20 EGNX 130720Z 27029KT 9999 FEW024 09/06 Q1012 W (270°) 33.4mph 9°C 6°C
13/01/19 06:50 EGNX 130650Z 27033KT CAVOK 09/06 Q1011 W (270°) 38.0mph 9°C 6°C
13/01/19 06:20 EGNX 130620Z 26021G31KT 9999 BKN020 09/07 Q1012 W (260°) 24.2mph 35.7mph 9°C 7°C
13/01/19 05:50 EGNX 130550Z 26030KT 9999 BKN020 09/06 Q1012 W (260°) 34.5mph 9°C 6°C
13/01/19 05:20 EGNX 130520Z 26030KT 9999 BKN017 09/07 Q1013 W (260°) 34.5mph 9°C 7°C
13/01/19 04:20 EGNX 130420Z 28023G38KT 9999 BKN018 09/07 Q1013 W (280°) 26.5mph 43.7mph 9°C 7°C
13/01/19 03:50 EGNX 130350Z 27019KT 240V300 9999 BKN021 10/06 Q1014 W (270°) 21.9mph 10°C 6°C
13/01/19 03:20 EGNX 130320Z 28017KT 250V320 9999 BKN020 10/07 Q1015 W (280°) 19.6mph 10°C 7°C
13/01/19 02:20 EGNX 130220Z 29014G24KT 260V320 9999 OVC017 10/07 Q1015 WNW (290°) 16.1mph 27.6mph 10°C 7°C
13/01/19 01:50 EGNX 130150Z 28018G29KT 9999 OVC018 10/07 Q1015 W (280°) 20.7mph 33.4mph 10°C 7°C
13/01/19 01:20 EGNX 130120Z 28016KT 9999 OVC018 10/07 Q1016 W (280°) 18.4mph 10°C 7°C
13/01/19 00:20 EGNX 130020Z 29017KT 9999 BKN020 10/07 Q1016 WNW (290°) 19.6mph 10°C 7°C
12/01/19 23:20 EGNX 122320Z 30015KT 9999 BKN020 10/08 Q1016 WNW (300°) 17.3mph 10°C 8°C
12/01/19 22:50 EGNX 122250Z 29019G30KT 9999 BKN017 10/08 Q1017 WNW (290°) 21.9mph 34.5mph 10°C 8°C
12/01/19 22:20 EGNX 122220Z 30015G26KT 9999 BKN017 10/08 Q1017 WNW (300°) 17.3mph 29.9mph 10°C 8°C
12/01/19 21:50 EGNX 122150Z 29015KT 9999 BKN018 10/08 Q1017 WNW (290°) 17.3mph 10°C 8°C
12/01/19 20:50 EGNX 122050Z 29014KT 260V320 9999 BKN018 10/08 Q1017 WNW (290°) 16.1mph 10°C 8°C
12/01/19 20:20 EGNX 122020Z 29015G25KT 260V320 9999 BKN018 10/08 Q1017 WNW (290°) 17.3mph 28.8mph 10°C 8°C
12/01/19 19:50 EGNX 121950Z 28018KT 9999 BKN018 10/08 Q1017 W (280°) 20.7mph 10°C 8°C
12/01/19 19:20 EGNX 121920Z 27018KT 9999 BKN014 09/07 Q1017 W (270°) 20.7mph 9°C 7°C
12/01/19 18:50 EGNX 121850Z 28015KT 9999 BKN012 08/07 Q1017 W (280°) 17.3mph 8°C 7°C
12/01/19 18:20 EGNX 121820Z 27019KT 9999 BKN011 08/07 Q1017 W (270°) 21.9mph 8°C 7°C
12/01/19 17:50 EGNX 121750Z 27014KT 9999 BKN017 08/06 Q1018 W (270°) 16.1mph 8°C 6°C
12/01/19 16:50 EGNX 121650Z 28014KT 9999 BKN016 08/06 Q1018 W (280°) 16.1mph 8°C 6°C
12/01/19 16:20 EGNX 121620Z 27019KT 9999 BKN018 08/06 Q1018 W (270°) 21.9mph 8°C 6°C
12/01/19 15:50 EGNX 121550Z 27017KT 9999 OVC019 08/06 Q1018 W (270°) 19.6mph 8°C 6°C
12/01/19 15:20 EGNX 121520Z 27020KT 9999 BKN020 08/06 Q1019 W (270°) 23.0mph 8°C 6°C
12/01/19 14:50 EGNX 121450Z 27015KT 9999 BKN018 08/06 Q1019 W (270°) 17.3mph 8°C 6°C
12/01/19 14:20 EGNX 121420Z 27014KT 9999 -RADZ BKN017 08/06 Q1019 -RA -DZ W (270°) 16.1mph 8°C 6°C
12/01/19 13:50 EGNX 121350Z 27015KT 9999 SCT015 BKN020 08/06 Q1019 W (270°) 17.3mph 8°C 6°C
12/01/19 13:20 EGNX 121320Z 27013KT 9999 BKN017 08/06 Q1020 W (270°) 15.0mph 8°C 6°C